Terminal Aerodrome Forecast
Issued by NWS

Home | Current Version | Previous Version | Text Only | Print | Product List | Glossary On
Versions: 1 2 3 4 5 6 7 8 9 10 11 12
000
FTUS45 KTFX 291700
TAFBZN
TAF
KBZN 291720Z 2918/3018 VRB06KT P6SM SCT120
     FM292000 VRB06KT P6SM SCT080 SCT150
     FM292200 VRB06KT P6SM VCTS SCT080CB BKN250
     FM300200 13005KT P6SM BKN250
     FM301100 VRB05KT P6SM BKN250=

USA.gov is the U.S. government's official web portal to all federal, state and local government web resources and services.